sensor_id;sensor_type;location;lat;lon;timestamp;P1;durP1;ratioP1;P2;durP2;ratioP2
7166;SDS011;3625;51.762;14.320;2022-10-17T00:01:17;6.07;;;5.00;;
7166;SDS011;3625;51.762;14.320;2022-10-17T00:03:45;6.10;;;4.72;;
7166;SDS011;3625;51.762;14.320;2022-10-17T00:06:14;5.50;;;5.00;;
7166;SDS011;3625;51.762;14.320;2022-10-17T00:08:42;5.22;;;4.70;;
7166;SDS011;3625;51.762;14.320;2022-10-17T00:11:12;6.80;;;4.80;;
7166;SDS011;3625;51.762;14.320;2022-10-17T00:13:44;6.38;;;5.57;;
7166;SDS011;3625;51.762;14.320;2022-10-17T00:16:15;5.68;;;5.07;;
7166;SDS011;3625;51.762;14.320;2022-10-17T00:18:50;6.65;;;4.85;;
7166;SDS011;3625;51.762;14.320;2022-10-17T00:21:18;6.28;;;4.75;;
7166;SDS011;3625;51.762;14.320;2022-10-17T00:23:48;4.90;;;4.50;;
7166;SDS011;3625;51.762;14.320;2022-10-17T00:26:16;9.40;;;5.18;;
7166;SDS011;3625;51.762;14.320;2022-10-17T00:28:46;6.72;;;4.85;;
7166;SDS011;3625;51.762;14.320;2022-10-17T00:31:18;8.05;;;5.05;;
7166;SDS011;3625;51.762;14.320;2022-10-17T00:33:48;5.30;;;4.60;;
7166;SDS011;3625;51.762;14.320;2022-10-17T00:36:18;5.75;;;4.75;;
7166;SDS011;3625;51.762;14.320;2022-10-17T00:38:50;5.22;;;4.72;;
7166;SDS011;3625;51.762;14.320;2022-10-17T00:41:21;5.57;;;5.00;;
7166;SDS011;3625;51.762;14.320;2022-10-17T00:43:54;5.40;;;4.88;;
7166;SDS011;3625;51.762;14.320;2022-10-17T00:46:27;6.03;;;5.35;;
7166;SDS011;3625;51.762;14.320;2022-10-17T00:48:58;6.40;;;5.30;;
7166;SDS011;3625;51.762;14.320;2022-10-17T00:51:33;5.47;;;4.93;;
7166;SDS011;3625;51.762;14.320;2022-10-17T00:54:09;4.93;;;4.45;;
7166;SDS011;3625;51.762;14.320;2022-10-17T00:56:41;5.60;;;5.10;;
7166;SDS011;3625;51.762;14.320;2022-10-17T00:59:10;5.38;;;4.88;;
7166;SDS011;3625;51.762;14.320;2022-10-17T01:01:47;5.85;;;5.05;;
7166;SDS011;3625;51.762;14.320;2022-10-17T01:04:25;5.68;;;4.10;;
7166;SDS011;3625;51.762;14.320;2022-10-17T01:06:54;6.13;;;4.72;;
7166;SDS011;3625;51.762;14.320;2022-10-17T01:09:23;5.80;;;4.68;;
7166;SDS011;3625;51.762;14.320;2022-10-17T01:11:54;6.20;;;4.93;;
7166;SDS011;3625;51.762;14.320;2022-10-17T01:14:34;5.43;;;4.93;;
7166;SDS011;3625;51.762;14.320;2022-10-17T01:17:10;5.00;;;4.60;;
7166;SDS011;3625;51.762;14.320;2022-10-17T01:19:57;5.50;;;4.80;;
7166;SDS011;3625;51.762;14.320;2022-10-17T01:22:50;5.95;;;5.00;;
7166;SDS011;3625;51.762;14.320;2022-10-17T01:25:33;5.18;;;4.68;;
7166;SDS011;3625;51.762;14.320;2022-10-17T01:28:26;6.03;;;4.57;;
7166;SDS011;3625;51.762;14.320;2022-10-17T01:31:20;5.55;;;4.88;;
7166;SDS011;3625;51.762;14.320;2022-10-17T01:33:54;5.10;;;4.60;;
7166;SDS011;3625;51.762;14.320;2022-10-17T01:36:34;5.25;;;4.75;;
7166;SDS011;3625;51.762;14.320;2022-10-17T01:39:13;5.80;;;5.30;;
7166;SDS011;3625;51.762;14.320;2022-10-17T01:41:56;5.80;;;5.00;;
7166;SDS011;3625;51.762;14.320;2022-10-17T01:44:35;4.95;;;4.55;;
7166;SDS011;3625;51.762;14.320;2022-10-17T01:47:14;4.97;;;4.50;;
7166;SDS011;3625;51.762;14.320;2022-10-17T01:49:47;5.45;;;4.95;;
7166;SDS011;3625;51.762;14.320;2022-10-17T01:52:18;6.55;;;5.00;;
7166;SDS011;3625;51.762;14.320;2022-10-17T01:54:52;6.00;;;5.40;;
7166;SDS011;3625;51.762;14.320;2022-10-17T01:57:26;5.97;;;5.20;;
7166;SDS011;3625;51.762;14.320;2022-10-17T01:59:58;6.82;;;5.10;;
7166;SDS011;3625;51.762;14.320;2022-10-17T02:02:39;6.18;;;4.90;;
7166;SDS011;3625;51.762;14.320;2022-10-17T02:05:10;6.70;;;5.47;;
7166;SDS011;3625;51.762;14.320;2022-10-17T02:07:39;7.32;;;5.75;;
7166;SDS011;3625;51.762;14.320;2022-10-17T02:10:09;6.65;;;5.05;;
7166;SDS011;3625;51.762;14.320;2022-10-17T02:12:47;5.10;;;4.60;;
7166;SDS011;3625;51.762;14.320;2022-10-17T02:15:27;5.00;;;4.60;;
7166;SDS011;3625;51.762;14.320;2022-10-17T02:18:23;5.95;;;4.93;;
7166;SDS011;3625;51.762;14.320;2022-10-17T02:21:12;6.35;;;4.50;;
7166;SDS011;3625;51.762;14.320;2022-10-17T02:23:46;5.70;;;5.20;;
7166;SDS011;3625;51.762;14.320;2022-10-17T02:26:24;6.23;;;5.50;;
7166;SDS011;3625;51.762;14.320;2022-10-17T02:29:02;6.03;;;5.07;;
7166;SDS011;3625;51.762;14.320;2022-10-17T02:31:37;8.75;;;5.93;;
7166;SDS011;3625;51.762;14.320;2022-10-17T02:34:12;8.18;;;5.65;;
7166;SDS011;3625;51.762;14.320;2022-10-17T02:36:48;6.93;;;5.68;;
7166;SDS011;3625;51.762;14.320;2022-10-17T02:39:20;8.82;;;5.50;;
7166;SDS011;3625;51.762;14.320;2022-10-17T02:41:51;6.22;;;5.72;;
7166;SDS011;3625;51.762;14.320;2022-10-17T02:44:24;9.00;;;6.07;;
7166;SDS011;3625;51.762;14.320;2022-10-17T02:46:58;7.30;;;6.10;;
7166;SDS011;3625;51.762;14.320;2022-10-17T02:49:38;6.57;;;5.95;;
7166;SDS011;3625;51.762;14.320;2022-10-17T02:52:14;6.55;;;5.72;;
7166;SDS011;3625;51.762;14.320;2022-10-17T02:54:52;6.57;;;5.87;;
7166;SDS011;3625;51.762;14.320;2022-10-17T02:57:28;6.75;;;6.05;;
7166;SDS011;3625;51.762;14.320;2022-10-17T03:00:04;7.30;;;6.38;;
7166;SDS011;3625;51.762;14.320;2022-10-17T03:02:38;7.85;;;6.15;;
7166;SDS011;3625;51.762;14.320;2022-10-17T03:05:10;8.05;;;6.95;;
7166;SDS011;3625;51.762;14.320;2022-10-17T03:07:44;8.77;;;7.68;;
7166;SDS011;3625;51.762;14.320;2022-10-17T03:10:13;8.20;;;7.17;;
7166;SDS011;3625;51.762;14.320;2022-10-17T03:12:42;10.90;;;7.80;;
7166;SDS011;3625;51.762;14.320;2022-10-17T03:15:11;9.35;;;7.43;;
7166;SDS011;3625;51.762;14.320;2022-10-17T03:17:40;8.75;;;7.53;;
7166;SDS011;3625;51.762;14.320;2022-10-17T03:20:16;8.48;;;7.15;;
7166;SDS011;3625;51.762;14.320;2022-10-17T03:22:45;9.57;;;7.30;;
7166;SDS011;3625;51.762;14.320;2022-10-17T03:25:13;11.02;;;8.07;;
7166;SDS011;3625;51.762;14.320;2022-10-17T03:27:42;10.97;;;8.60;;
7166;SDS011;3625;51.762;14.320;2022-10-17T03:30:10;9.23;;;8.20;;
7166;SDS011;3625;51.762;14.320;2022-10-17T03:32:39;10.73;;;8.32;;
7166;SDS011;3625;51.762;14.320;2022-10-17T03:35:08;11.43;;;8.73;;
7166;SDS011;3625;51.762;14.320;2022-10-17T03:37:44;11.77;;;9.50;;
7166;SDS011;3625;51.762;14.320;2022-10-17T03:40:14;12.30;;;9.70;;
7166;SDS011;3625;51.762;14.320;2022-10-17T03:42:43;11.23;;;10.03;;
7166;SDS011;3625;51.762;14.320;2022-10-17T03:45:12;14.07;;;10.88;;
7166;SDS011;3625;51.762;14.320;2022-10-17T03:47:41;11.87;;;10.03;;
7166;SDS011;3625;51.762;14.320;2022-10-17T03:50:09;14.73;;;11.40;;
7166;SDS011;3625;51.762;14.320;2022-10-17T03:52:39;17.83;;;12.75;;
7166;SDS011;3625;51.762;14.320;2022-10-17T03:55:09;16.65;;;13.20;;
7166;SDS011;3625;51.762;14.320;2022-10-17T03:57:38;18.02;;;13.85;;
7166;SDS011;3625;51.762;14.320;2022-10-17T04:00:11;19.90;;;14.18;;
7166;SDS011;3625;51.762;14.320;2022-10-17T04:02:41;17.38;;;13.15;;
7166;SDS011;3625;51.762;14.320;2022-10-17T04:05:16;18.10;;;13.25;;
7166;SDS011;3625;51.762;14.320;2022-10-17T04:07:46;18.05;;;13.13;;
7166;SDS011;3625;51.762;14.320;2022-10-17T04:10:19;21.02;;;15.57;;
7166;SDS011;3625;51.762;14.320;2022-10-17T04:12:48;19.20;;;15.00;;
7166;SDS011;3625;51.762;14.320;2022-10-17T04:15:16;22.77;;;17.13;;
7166;SDS011;3625;51.762;14.320;2022-10-17T04:17:45;22.40;;;17.10;;
7166;SDS011;3625;51.762;14.320;2022-10-17T04:20:15;20.48;;;15.30;;
7166;SDS011;3625;51.762;14.320;2022-10-17T04:22:44;20.17;;;16.87;;
7166;SDS011;3625;51.762;14.320;2022-10-17T04:25:14;22.60;;;17.47;;
7166;SDS011;3625;51.762;14.320;2022-10-17T04:27:46;19.42;;;14.85;;
7166;SDS011;3625;51.762;14.320;2022-10-17T04:30:15;24.67;;;17.30;;
7166;SDS011;3625;51.762;14.320;2022-10-17T04:32:44;22.90;;;16.93;;
7166;SDS011;3625;51.762;14.320;2022-10-17T04:35:19;20.73;;;16.15;;
7166;SDS011;3625;51.762;14.320;2022-10-17T04:37:55;20.73;;;15.73;;
7166;SDS011;3625;51.762;14.320;2022-10-17T04:40:23;26.52;;;18.33;;
7166;SDS011;3625;51.762;14.320;2022-10-17T04:42:53;25.23;;;18.13;;
7166;SDS011;3625;51.762;14.320;2022-10-17T04:45:30;19.30;;;14.53;;
7166;SDS011;3625;51.762;14.320;2022-10-17T04:48:02;25.63;;;17.95;;
7166;SDS011;3625;51.762;14.320;2022-10-17T04:50:30;23.70;;;18.43;;
7166;SDS011;3625;51.762;14.320;2022-10-17T04:53:24;23.27;;;17.53;;
7166;SDS011;3625;51.762;14.320;2022-10-17T04:55:54;24.47;;;19.30;;
7166;SDS011;3625;51.762;14.320;2022-10-17T04:58:26;25.60;;;19.80;;
7166;SDS011;3625;51.762;14.320;2022-10-17T05:00:56;26.03;;;19.20;;
7166;SDS011;3625;51.762;14.320;2022-10-17T05:03:27;27.27;;;20.20;;
7166;SDS011;3625;51.762;14.320;2022-10-17T05:05:56;24.77;;;17.70;;
7166;SDS011;3625;51.762;14.320;2022-10-17T05:08:25;25.33;;;19.17;;
7166;SDS011;3625;51.762;14.320;2022-10-17T05:10:54;24.80;;;19.00;;
7166;SDS011;3625;51.762;14.320;2022-10-17T05:13:24;24.17;;;19.03;;
7166;SDS011;3625;51.762;14.320;2022-10-17T05:15:53;27.95;;;21.20;;
7166;SDS011;3625;51.762;14.320;2022-10-17T05:18:26;31.35;;;21.80;;
7166;SDS011;3625;51.762;14.320;2022-10-17T05:20:55;27.93;;;20.53;;
7166;SDS011;3625;51.762;14.320;2022-10-17T05:23:24;33.03;;;21.03;;
7166;SDS011;3625;51.762;14.320;2022-10-17T05:25:55;26.93;;;21.00;;
7166;SDS011;3625;51.762;14.320;2022-10-17T05:28:27;25.70;;;20.35;;
7166;SDS011;3625;51.762;14.320;2022-10-17T05:31:01;28.20;;;21.37;;
7166;SDS011;3625;51.762;14.320;2022-10-17T05:33:30;24.75;;;19.67;;
7166;SDS011;3625;51.762;14.320;2022-10-17T05:36:00;30.17;;;22.37;;
7166;SDS011;3625;51.762;14.320;2022-10-17T05:38:29;26.58;;;19.98;;
7166;SDS011;3625;51.762;14.320;2022-10-17T05:40:58;30.17;;;22.90;;
7166;SDS011;3625;51.762;14.320;2022-10-17T05:43:30;27.67;;;20.80;;
7166;SDS011;3625;51.762;14.320;2022-10-17T05:46:02;31.77;;;24.65;;
7166;SDS011;3625;51.762;14.320;2022-10-17T05:48:32;28.83;;;21.92;;
7166;SDS011;3625;51.762;14.320;2022-10-17T05:51:01;31.75;;;21.55;;
7166;SDS011;3625;51.762;14.320;2022-10-17T05:53:34;31.90;;;22.67;;
7166;SDS011;3625;51.762;14.320;2022-10-17T05:56:10;30.30;;;23.38;;
7166;SDS011;3625;51.762;14.320;2022-10-17T05:58:42;32.22;;;22.90;;
7166;SDS011;3625;51.762;14.320;2022-10-17T06:01:37;31.52;;;23.52;;
7166;SDS011;3625;51.762;14.320;2022-10-17T06:04:06;29.13;;;21.02;;
7166;SDS011;3625;51.762;14.320;2022-10-17T06:06:35;36.55;;;26.02;;
7166;SDS011;3625;51.762;14.320;2022-10-17T06:09:06;35.22;;;23.85;;
7166;SDS011;3625;51.762;14.320;2022-10-17T06:11:38;29.55;;;20.77;;
7166;SDS011;3625;51.762;14.320;2022-10-17T06:14:08;33.38;;;22.80;;
7166;SDS011;3625;51.762;14.320;2022-10-17T06:16:38;28.38;;;20.45;;
7166;SDS011;3625;51.762;14.320;2022-10-17T06:19:08;27.80;;;21.40;;
7166;SDS011;3625;51.762;14.320;2022-10-17T06:21:38;34.10;;;24.25;;
7166;SDS011;3625;51.762;14.320;2022-10-17T06:24:18;29.73;;;23.40;;
7166;SDS011;3625;51.762;14.320;2022-10-17T06:26:49;30.45;;;23.73;;
7166;SDS011;3625;51.762;14.320;2022-10-17T06:29:21;31.73;;;22.85;;
7166;SDS011;3625;51.762;14.320;2022-10-17T06:31:50;28.10;;;22.23;;
7166;SDS011;3625;51.762;14.320;2022-10-17T06:34:19;28.23;;;22.23;;
7166;SDS011;3625;51.762;14.320;2022-10-17T06:36:48;30.52;;;22.15;;
7166;SDS011;3625;51.762;14.320;2022-10-17T06:39:18;27.13;;;21.85;;
7166;SDS011;3625;51.762;14.320;2022-10-17T06:42:02;24.80;;;20.95;;
7166;SDS011;3625;51.762;14.320;2022-10-17T06:44:58;27.65;;;22.85;;
7166;SDS011;3625;51.762;14.320;2022-10-17T06:47:45;22.20;;;19.08;;
7166;SDS011;3625;51.762;14.320;2022-10-17T06:50:33;29.58;;;21.25;;
7166;SDS011;3625;51.762;14.320;2022-10-17T06:53:18;27.40;;;21.65;;
7166;SDS011;3625;51.762;14.320;2022-10-17T06:56:06;25.05;;;19.67;;
7166;SDS011;3625;51.762;14.320;2022-10-17T06:58:45;24.75;;;18.40;;
7166;SDS011;3625;51.762;14.320;2022-10-17T07:01:33;28.00;;;19.88;;
7166;SDS011;3625;51.762;14.320;2022-10-17T07:04:03;24.20;;;20.23;;
7166;SDS011;3625;51.762;14.320;2022-10-17T07:06:32;26.52;;;20.30;;
7166;SDS011;3625;51.762;14.320;2022-10-17T07:09:07;24.38;;;19.50;;
7166;SDS011;3625;51.762;14.320;2022-10-17T07:11:36;23.40;;;19.35;;
7166;SDS011;3625;51.762;14.320;2022-10-17T07:14:05;30.70;;;20.67;;
7166;SDS011;3625;51.762;14.320;2022-10-17T07:16:35;26.70;;;19.88;;
7166;SDS011;3625;51.762;14.320;2022-10-17T07:19:14;22.50;;;18.38;;
7166;SDS011;3625;51.762;14.320;2022-10-17T07:21:42;24.40;;;19.55;;
7166;SDS011;3625;51.762;14.320;2022-10-17T07:24:11;26.27;;;20.60;;
7166;SDS011;3625;51.762;14.320;2022-10-17T07:26:44;28.73;;;21.88;;
7166;SDS011;3625;51.762;14.320;2022-10-17T07:29:13;29.10;;;21.10;;
7166;SDS011;3625;51.762;14.320;2022-10-17T07:31:48;23.42;;;20.00;;
7166;SDS011;3625;51.762;14.320;2022-10-17T07:34:17;26.40;;;19.55;;
7166;SDS011;3625;51.762;14.320;2022-10-17T07:36:46;23.27;;;19.63;;
7166;SDS011;3625;51.762;14.320;2022-10-17T07:39:15;27.58;;;19.83;;
7166;SDS011;3625;51.762;14.320;2022-10-17T07:41:44;26.30;;;18.77;;
7166;SDS011;3625;51.762;14.320;2022-10-17T07:44:13;19.95;;;16.58;;
7166;SDS011;3625;51.762;14.320;2022-10-17T07:46:45;22.65;;;18.08;;
7166;SDS011;3625;51.762;14.320;2022-10-17T07:49:16;22.38;;;18.40;;
7166;SDS011;3625;51.762;14.320;2022-10-17T07:51:46;21.35;;;17.67;;
7166;SDS011;3625;51.762;14.320;2022-10-17T07:54:15;19.50;;;17.45;;
7166;SDS011;3625;51.762;14.320;2022-10-17T07:56:44;21.98;;;17.05;;
7166;SDS011;3625;51.762;14.320;2022-10-17T07:59:16;21.83;;;17.55;;
7166;SDS011;3625;51.762;14.320;2022-10-17T08:01:44;23.65;;;17.65;;
7166;SDS011;3625;51.762;14.320;2022-10-17T08:04:13;21.20;;;18.35;;
7166;SDS011;3625;51.762;14.320;2022-10-17T08:06:43;21.02;;;17.92;;
7166;SDS011;3625;51.762;14.320;2022-10-17T08:09:12;21.88;;;15.85;;
7166;SDS011;3625;51.762;14.320;2022-10-17T08:11:41;20.10;;;16.55;;
7166;SDS011;3625;51.762;14.320;2022-10-17T08:14:10;18.88;;;16.63;;
7166;SDS011;3625;51.762;14.320;2022-10-17T08:16:39;19.90;;;16.85;;
7166;SDS011;3625;51.762;14.320;2022-10-17T08:19:07;21.30;;;16.30;;
7166;SDS011;3625;51.762;14.320;2022-10-17T08:21:39;21.75;;;17.13;;
7166;SDS011;3625;51.762;14.320;2022-10-17T08:24:10;16.42;;;14.73;;
7166;SDS011;3625;51.762;14.320;2022-10-17T08:26:38;20.95;;;14.75;;
7166;SDS011;3625;51.762;14.320;2022-10-17T08:29:11;17.30;;;14.50;;
7166;SDS011;3625;51.762;14.320;2022-10-17T08:31:40;19.05;;;15.45;;
7166;SDS011;3625;51.762;14.320;2022-10-17T08:34:13;16.77;;;14.75;;
7166;SDS011;3625;51.762;14.320;2022-10-17T08:36:44;16.67;;;14.70;;
7166;SDS011;3625;51.762;14.320;2022-10-17T08:39:12;17.73;;;15.77;;
7166;SDS011;3625;51.762;14.320;2022-10-17T08:41:44;18.27;;;14.52;;
7166;SDS011;3625;51.762;14.320;2022-10-17T08:44:24;17.10;;;14.05;;
7166;SDS011;3625;51.762;14.320;2022-10-17T08:47:04;17.67;;;14.60;;
7166;SDS011;3625;51.762;14.320;2022-10-17T08:49:40;13.40;;;12.00;;
7166;SDS011;3625;51.762;14.320;2022-10-17T08:52:20;14.77;;;13.27;;
7166;SDS011;3625;51.762;14.320;2022-10-17T08:54:58;14.63;;;13.13;;
7166;SDS011;3625;51.762;14.320;2022-10-17T08:57:27;14.27;;;12.82;;
7166;SDS011;3625;51.762;14.320;2022-10-17T08:59:56;14.85;;;13.32;;
7166;SDS011;3625;51.762;14.320;2022-10-17T09:02:37;15.18;;;13.30;;
7166;SDS011;3625;51.762;14.320;2022-10-17T09:05:25;14.43;;;13.02;;
7166;SDS011;3625;51.762;14.320;2022-10-17T09:08:04;14.43;;;12.82;;
7166;SDS011;3625;51.762;14.320;2022-10-17T09:10:46;14.52;;;11.68;;
7166;SDS011;3625;51.762;14.320;2022-10-17T09:13:26;17.95;;;12.32;;
7166;SDS011;3625;51.762;14.320;2022-10-17T09:16:10;13.95;;;11.85;;
7166;SDS011;3625;51.762;14.320;2022-10-17T09:18:54;14.30;;;12.82;;
7166;SDS011;3625;51.762;14.320;2022-10-17T09:21:31;12.38;;;10.68;;
7166;SDS011;3625;51.762;14.320;2022-10-17T09:24:09;12.27;;;11.00;;
7166;SDS011;3625;51.762;14.320;2022-10-17T09:26:43;13.95;;;12.55;;
7166;SDS011;3625;51.762;14.320;2022-10-17T09:29:18;17.77;;;12.60;;
7166;SDS011;3625;51.762;14.320;2022-10-17T09:31:52;11.40;;;10.30;;
7166;SDS011;3625;51.762;14.320;2022-10-17T09:34:25;13.63;;;12.10;;
7166;SDS011;3625;51.762;14.320;2022-10-17T09:36:56;13.73;;;11.10;;
7166;SDS011;3625;51.762;14.320;2022-10-17T09:39:27;14.73;;;13.13;;
7166;SDS011;3625;51.762;14.320;2022-10-17T09:41:58;14.65;;;12.38;;
7166;SDS011;3625;51.762;14.320;2022-10-17T09:44:29;12.82;;;11.40;;
7166;SDS011;3625;51.762;14.320;2022-10-17T09:47:12;11.20;;;9.98;;
7166;SDS011;3625;51.762;14.320;2022-10-17T09:49:49;14.00;;;12.23;;
7166;SDS011;3625;51.762;14.320;2022-10-17T09:52:19;13.70;;;10.57;;
7166;SDS011;3625;51.762;14.320;2022-10-17T09:54:53;13.75;;;11.57;;
7166;SDS011;3625;51.762;14.320;2022-10-17T09:57:26;13.23;;;11.52;;
7166;SDS011;3625;51.762;14.320;2022-10-17T09:59:56;14.48;;;11.80;;
7166;SDS011;3625;51.762;14.320;2022-10-17T10:02:27;15.23;;;11.30;;
7166;SDS011;3625;51.762;14.320;2022-10-17T10:04:59;17.02;;;11.35;;
7166;SDS011;3625;51.762;14.320;2022-10-17T10:07:33;11.88;;;10.65;;
7166;SDS011;3625;51.762;14.320;2022-10-17T10:10:06;13.13;;;11.55;;
7166;SDS011;3625;51.762;14.320;2022-10-17T10:13:04;13.30;;;11.32;;
7166;SDS011;3625;51.762;14.320;2022-10-17T10:15:35;14.52;;;11.45;;
7166;SDS011;3625;51.762;14.320;2022-10-17T10:21:02;12.82;;;10.65;;
7166;SDS011;3625;51.762;14.320;2022-10-17T10:23:36;11.68;;;10.48;;
7166;SDS011;3625;51.762;14.320;2022-10-17T10:28:57;12.10;;;10.85;;
7166;SDS011;3625;51.762;14.320;2022-10-17T10:31:31;12.55;;;10.75;;
7166;SDS011;3625;51.762;14.320;2022-10-17T10:34:03;13.20;;;11.30;;
7166;SDS011;3625;51.762;14.320;2022-10-17T10:36:43;13.77;;;11.57;;
7166;SDS011;3625;51.762;14.320;2022-10-17T10:39:21;11.95;;;10.73;;
7166;SDS011;3625;51.762;14.320;2022-10-17T10:41:59;12.15;;;10.93;;
7166;SDS011;3625;51.762;14.320;2022-10-17T10:44:29;11.25;;;10.05;;
7166;SDS011;3625;51.762;14.320;2022-10-17T10:47:07;12.32;;;10.50;;
7166;SDS011;3625;51.762;14.320;2022-10-17T10:49:49;11.75;;;10.55;;
7166;SDS011;3625;51.762;14.320;2022-10-17T10:52:27;11.68;;;10.48;;
7166;SDS011;3625;51.762;14.320;2022-10-17T10:55:02;11.80;;;10.70;;
7166;SDS011;3625;51.762;14.320;2022-10-17T10:57:42;10.60;;;9.50;;
7166;SDS011;3625;51.762;14.320;2022-10-17T11:00:14;12.48;;;11.18;;
7166;SDS011;3625;51.762;14.320;2022-10-17T11:02:48;13.63;;;10.18;;
7166;SDS011;3625;51.762;14.320;2022-10-17T11:05:25;12.00;;;9.48;;
7166;SDS011;3625;51.762;14.320;2022-10-17T11:08:05;11.45;;;10.25;;
7166;SDS011;3625;51.762;14.320;2022-10-17T11:10:54;10.68;;;9.68;;
7166;SDS011;3625;51.762;14.320;2022-10-17T11:13:45;12.13;;;10.82;;
7166;SDS011;3625;51.762;14.320;2022-10-17T11:16:24;11.18;;;10.07;;
7166;SDS011;3625;51.762;14.320;2022-10-17T11:19:02;12.02;;;9.60;;
7166;SDS011;3625;51.762;14.320;2022-10-17T11:21:40;10.75;;;9.65;;
7166;SDS011;3625;51.762;14.320;2022-10-17T11:24:17;13.23;;;9.45;;
7166;SDS011;3625;51.762;14.320;2022-10-17T11:26:52;10.88;;;9.77;;
7166;SDS011;3625;51.762;14.320;2022-10-17T11:29:28;9.68;;;8.30;;
7166;SDS011;3625;51.762;14.320;2022-10-17T11:32:03;8.73;;;7.85;;
7166;SDS011;3625;51.762;14.320;2022-10-17T11:34:40;10.90;;;8.35;;
7166;SDS011;3625;51.762;14.320;2022-10-17T11:37:15;9.38;;;8.48;;
7166;SDS011;3625;51.762;14.320;2022-10-17T11:39:51;11.70;;;8.30;;
7166;SDS011;3625;51.762;14.320;2022-10-17T11:42:24;8.57;;;7.78;;
7166;SDS011;3625;51.762;14.320;2022-10-17T11:45:01;8.38;;;7.57;;
7166;SDS011;3625;51.762;14.320;2022-10-17T11:47:37;9.75;;;8.60;;
7166;SDS011;3625;51.762;14.320;2022-10-17T11:50:18;9.25;;;8.27;;
7166;SDS011;3625;51.762;14.320;2022-10-17T11:53:13;9.90;;;7.75;;
7166;SDS011;3625;51.762;14.320;2022-10-17T11:55:45;9.85;;;7.55;;
7166;SDS011;3625;51.762;14.320;2022-10-17T11:58:25;9.30;;;7.47;;
7166;SDS011;3625;51.762;14.320;2022-10-17T12:01:11;9.07;;;8.15;;
7166;SDS011;3625;51.762;14.320;2022-10-17T12:03:55;8.93;;;8.02;;
7166;SDS011;3625;51.762;14.320;2022-10-17T12:06:48;8.50;;;7.70;;
7166;SDS011;3625;51.762;14.320;2022-10-17T12:09:34;9.02;;;7.47;;
7166;SDS011;3625;51.762;14.320;2022-10-17T12:12:22;8.50;;;7.70;;
7166;SDS011;3625;51.762;14.320;2022-10-17T12:14:53;9.02;;;7.70;;
7166;SDS011;3625;51.762;14.320;2022-10-17T12:17:43;8.27;;;7.45;;
7166;SDS011;3625;51.762;14.320;2022-10-17T12:20:23;8.52;;;7.20;;
7166;SDS011;3625;51.762;14.320;2022-10-17T12:23:03;9.43;;;8.25;;
7166;SDS011;3625;51.762;14.320;2022-10-17T12:25:51;8.45;;;7.65;;
7166;SDS011;3625;51.762;14.320;2022-10-17T12:28:29;8.57;;;7.35;;
7166;SDS011;3625;51.762;14.320;2022-10-17T12:30:59;12.40;;;7.45;;
7166;SDS011;3625;51.762;14.320;2022-10-17T12:33:34;10.93;;;7.82;;
7166;SDS011;3625;51.762;14.320;2022-10-17T12:51:29;9.77;;;7.72;;
7166;SDS011;3625;51.762;14.320;2022-10-17T12:54:59;8.60;;;6.75;;
7166;SDS011;3625;51.762;14.320;2022-10-17T12:57:41;7.30;;;6.28;;
7166;SDS011;3625;51.762;14.320;2022-10-17T13:00:20;7.03;;;6.32;;
7166;SDS011;3625;51.762;14.320;2022-10-17T13:03:00;8.68;;;6.03;;
7166;SDS011;3625;51.762;14.320;2022-10-17T13:05:39;9.35;;;6.53;;
7166;SDS011;3625;51.762;14.320;2022-10-17T13:08:14;7.40;;;6.47;;
7166;SDS011;3625;51.762;14.320;2022-10-17T13:10:47;9.75;;;6.88;;
7166;SDS011;3625;51.762;14.320;2022-10-17T13:13:19;8.52;;;7.20;;
7166;SDS011;3625;51.762;14.320;2022-10-17T13:15:52;11.20;;;6.88;;
7166;SDS011;3625;51.762;14.320;2022-10-17T13:18:23;17.50;;;7.13;;
7166;SDS011;3625;51.762;14.320;2022-10-17T13:20:55;7.65;;;6.20;;
7166;SDS011;3625;51.762;14.320;2022-10-17T13:23:28;7.57;;;6.78;;
7166;SDS011;3625;51.762;14.320;2022-10-17T13:26:02;8.48;;;6.55;;
7166;SDS011;3625;51.762;14.320;2022-10-17T13:28:33;8.85;;;7.07;;
7166;SDS011;3625;51.762;14.320;2022-10-17T13:31:05;8.80;;;6.93;;
7166;SDS011;3625;51.762;14.320;2022-10-17T13:33:35;10.13;;;7.05;;
7166;SDS011;3625;51.762;14.320;2022-10-17T13:36:11;8.05;;;7.25;;
7166;SDS011;3625;51.762;14.320;2022-10-17T13:38:44;7.20;;;6.50;;
7166;SDS011;3625;51.762;14.320;2022-10-17T13:41:15;10.88;;;7.93;;
7166;SDS011;3625;51.762;14.320;2022-10-17T13:44:02;10.90;;;8.38;;
7166;SDS011;3625;51.762;14.320;2022-10-17T13:46:37;9.07;;;7.35;;
7166;SDS011;3625;51.762;14.320;2022-10-17T13:49:11;9.55;;;7.78;;
7166;SDS011;3625;51.762;14.320;2022-10-17T13:51:53;9.98;;;7.85;;
7166;SDS011;3625;51.762;14.320;2022-10-17T13:54:31;8.30;;;7.43;;
7166;SDS011;3625;51.762;14.320;2022-10-17T13:57:04;7.88;;;7.18;;
7166;SDS011;3625;51.762;14.320;2022-10-17T13:59:43;8.60;;;7.72;;
7166;SDS011;3625;51.762;14.320;2022-10-17T14:02:15;8.68;;;7.78;;
7166;SDS011;3625;51.762;14.320;2022-10-17T14:04:46;8.32;;;7.53;;
7166;SDS011;3625;51.762;14.320;2022-10-17T14:07:49;10.98;;;8.20;;
7166;SDS011;3625;51.762;14.320;2022-10-17T14:10:40;10.55;;;8.13;;
7166;SDS011;3625;51.762;14.320;2022-10-17T14:13:16;8.73;;;7.85;;
7166;SDS011;3625;51.762;14.320;2022-10-17T14:15:49;9.05;;;8.07;;
7166;SDS011;3625;51.762;14.320;2022-10-17T14:18:20;11.50;;;8.77;;
7166;SDS011;3625;51.762;14.320;2022-10-17T14:21:01;9.52;;;7.60;;
7166;SDS011;3625;51.762;14.320;2022-10-17T14:24:10;11.43;;;8.80;;
7166;SDS011;3625;51.762;14.320;2022-10-17T14:26:46;10.90;;;8.50;;
7166;SDS011;3625;51.762;14.320;2022-10-17T14:29:19;11.02;;;8.52;;
7166;SDS011;3625;51.762;14.320;2022-10-17T14:31:56;9.30;;;8.30;;
7166;SDS011;3625;51.762;14.320;2022-10-17T14:34:29;13.25;;;11.85;;
7166;SDS011;3625;51.762;14.320;2022-10-17T14:37:00;12.02;;;8.45;;
7166;SDS011;3625;51.762;14.320;2022-10-17T14:39:36;10.98;;;8.63;;
7166;SDS011;3625;51.762;14.320;2022-10-17T14:42:05;10.57;;;8.23;;
7166;SDS011;3625;51.762;14.320;2022-10-17T14:44:42;10.80;;;8.38;;
7166;SDS011;3625;51.762;14.320;2022-10-17T14:47:17;10.60;;;8.32;;
7166;SDS011;3625;51.762;14.320;2022-10-17T14:50:19;10.57;;;8.73;;
7166;SDS011;3625;51.762;14.320;2022-10-17T14:53:00;10.48;;;8.27;;
7166;SDS011;3625;51.762;14.320;2022-10-17T14:55:33;11.40;;;9.63;;
7166;SDS011;3625;51.762;14.320;2022-10-17T14:58:14;11.38;;;8.40;;
7166;SDS011;3625;51.762;14.320;2022-10-17T15:00:43;11.82;;;10.25;;
7166;SDS011;3625;51.762;14.320;2022-10-17T15:03:12;9.57;;;8.57;;
7166;SDS011;3625;51.762;14.320;2022-10-17T15:05:40;11.07;;;8.80;;
7166;SDS011;3625;51.762;14.320;2022-10-17T15:08:10;9.65;;;8.35;;
7166;SDS011;3625;51.762;14.320;2022-10-17T15:10:43;9.68;;;8.70;;
7166;SDS011;3625;51.762;14.320;2022-10-17T15:13:13;11.07;;;9.18;;
7166;SDS011;3625;51.762;14.320;2022-10-17T15:15:53;10.63;;;8.80;;
7166;SDS011;3625;51.762;14.320;2022-10-17T15:18:22;10.90;;;9.38;;
7166;SDS011;3625;51.762;14.320;2022-10-17T15:20:51;11.25;;;10.07;;
7166;SDS011;3625;51.762;14.320;2022-10-17T15:23:31;12.02;;;9.73;;
7166;SDS011;3625;51.762;14.320;2022-10-17T15:26:01;13.43;;;12.02;;
7166;SDS011;3625;51.762;14.320;2022-10-17T15:28:30;16.83;;;15.02;;
7166;SDS011;3625;51.762;14.320;2022-10-17T15:30:58;11.48;;;10.35;;
7166;SDS011;3625;51.762;14.320;2022-10-17T15:33:27;12.98;;;10.85;;
7166;SDS011;3625;51.762;14.320;2022-10-17T15:35:55;11.45;;;10.18;;
7166;SDS011;3625;51.762;14.320;2022-10-17T15:38:24;10.45;;;9.40;;
7166;SDS011;3625;51.762;14.320;2022-10-17T15:40:52;12.35;;;9.70;;
7166;SDS011;3625;51.762;14.320;2022-10-17T15:43:23;12.15;;;10.05;;
7166;SDS011;3625;51.762;14.320;2022-10-17T15:45:51;10.77;;;9.77;;
7166;SDS011;3625;51.762;14.320;2022-10-17T15:48:22;11.90;;;10.70;;
7166;SDS011;3625;51.762;14.320;2022-10-17T15:50:55;12.05;;;10.85;;